createdAt,value
2018-05-12T00:00:33.972Z,14.92
2018-05-12T00:01:34.046Z,14.86
2018-05-12T00:02:34.008Z,14.83
2018-05-12T00:03:34.018Z,14.88
2018-05-12T00:04:34.038Z,14.86
2018-05-12T00:05:34.052Z,14.92
2018-05-12T00:06:34.073Z,14.92
2018-05-12T00:07:34.092Z,14.78
2018-05-12T00:08:34.133Z,14.73
2018-05-12T00:09:34.127Z,14.78
2018-05-12T00:10:34.140Z,14.88
2018-05-12T00:11:34.158Z,14.73
2018-05-12T00:12:34.171Z,14.86
2018-05-12T00:13:34.196Z,14.77
2018-05-12T00:14:34.211Z,14.91
2018-05-12T00:15:34.221Z,14.88
2018-05-12T00:16:34.246Z,14.88
2018-05-12T00:17:34.263Z,14.83
2018-05-12T00:18:34.279Z,14.83
2018-05-12T00:19:34.350Z,14.81
2018-05-12T00:20:34.314Z,14.83
2018-05-12T00:21:34.327Z,14.80
2018-05-12T00:22:34.345Z,14.83
2018-05-12T00:23:34.360Z,14.75
2018-05-12T00:24:34.379Z,14.89
2018-05-12T00:25:34.459Z,14.91
2018-05-12T00:26:34.415Z,14.89
2018-05-12T00:27:34.428Z,14.91
2018-05-12T00:28:34.444Z,14.88
2018-05-12T00:29:34.460Z,14.86
2018-05-12T00:30:34.478Z,14.83
2018-05-12T00:31:34.495Z,14.83
2018-05-12T00:32:34.519Z,14.84
2018-05-12T00:33:34.535Z,14.81
2018-05-12T00:34:34.548Z,14.77
2018-05-12T00:35:34.568Z,14.84
2018-05-12T00:36:34.585Z,14.77
2018-05-12T00:37:34.667Z,14.81
2018-05-12T00:38:34.621Z,14.75
2018-05-12T00:39:34.633Z,14.75
2018-05-12T00:40:34.651Z,14.77
2018-05-12T00:41:34.668Z,14.72
2018-05-12T00:42:34.686Z,14.78
2018-05-12T00:43:34.704Z,14.68
2018-05-12T00:44:34.722Z,14.65
2018-05-12T00:45:34.740Z,14.65
2018-05-12T00:46:34.750Z,14.64
2018-05-12T00:47:34.772Z,14.65
2018-05-12T00:48:34.781Z,14.61
2018-05-12T00:49:34.806Z,14.62
2018-05-12T00:50:34.819Z,14.45
2018-05-12T00:51:34.833Z,14.55
2018-05-12T00:52:34.851Z,14.47
2018-05-12T00:53:34.872Z,14.40
2018-05-12T00:54:34.889Z,14.43
2018-05-12T00:55:35.026Z,14.36
2018-05-12T00:57:34.941Z,14.28
2018-05-12T00:58:34.963Z,14.32
2018-05-12T00:59:34.999Z,14.27
2018-05-12T01:00:34.989Z,14.42
2018-05-12T01:01:35.004Z,14.36
2018-05-12T01:02:35.043Z,14.35
2018-05-12T01:05:35.076Z,14.21
2018-05-12T01:07:35.110Z,14.24
2018-05-12T01:10:35.160Z,14.20
2018-05-12T01:11:35.178Z,14.17
2018-05-12T01:12:35.197Z,14.20
2018-05-12T01:13:35.281Z,14.15
2018-05-12T01:14:35.279Z,14.21
2018-05-12T01:16:35.254Z,14.06
2018-05-12T01:18:35.296Z,14.10
2018-05-12T01:19:35.315Z,14.17
2018-05-12T01:20:35.322Z,14.14
2018-05-12T01:21:35.343Z,14.02
2018-05-12T01:23:35.373Z,14.03
2018-05-12T01:24:35.395Z,13.97
2018-05-12T01:25:35.462Z,14.04
2018-05-12T01:26:35.423Z,14.09
2018-05-12T01:27:35.437Z,13.96
2018-05-12T01:28:35.459Z,13.95
2018-05-12T01:31:35.562Z,13.96
2018-05-12T01:34:35.564Z,13.97
2018-05-12T01:35:35.580Z,13.95
2018-05-12T01:36:35.595Z,13.89
2018-05-12T01:37:35.657Z,13.84
2018-05-12T01:39:35.644Z,13.81
2018-05-12T01:41:35.674Z,13.82
2018-05-12T01:43:35.713Z,13.85
2018-05-12T01:44:35.727Z,13.81
2018-05-12T01:46:35.759Z,13.91
2018-05-12T01:47:35.781Z,13.78
2018-05-12T01:48:35.793Z,13.84
2018-05-12T01:49:35.864Z,13.77
2018-05-12T01:50:35.826Z,13.77
2018-05-12T01:51:35.847Z,13.69
2018-05-12T01:52:35.859Z,13.70
2018-05-12T01:53:35.881Z,13.69
2018-05-12T01:54:35.896Z,13.66
2018-05-12T01:55:35.908Z,13.63
2018-05-12T01:56:35.930Z,13.71
2018-05-12T01:57:36.012Z,13.66
2018-05-12T02:00:35.995Z,13.67
2018-05-12T02:01:36.014Z,13.69
2018-05-12T02:02:36.025Z,13.63
2018-05-12T02:03:36.042Z,13.67
2018-05-12T02:04:36.058Z,13.64
2018-05-12T02:05:36.073Z,13.70
2018-05-12T02:06:36.092Z,13.67
2018-05-12T02:07:36.117Z,13.67
2018-05-12T02:08:36.127Z,13.67
2018-05-12T02:11:36.174Z,13.60
2018-05-12T02:12:36.216Z,13.78
2018-05-12T02:13:36.210Z,13.70
2018-05-12T02:14:36.230Z,13.69
2018-05-12T02:15:36.248Z,13.67
2018-05-12T02:16:36.266Z,13.78
2018-05-12T02:18:36.296Z,13.70
2018-05-12T02:19:36.359Z,13.75
2018-05-12T02:21:36.343Z,13.79
2018-05-12T02:23:36.373Z,13.66
2018-05-12T02:24:36.389Z,13.78
2018-05-12T02:25:36.457Z,13.60
2018-05-12T02:28:36.495Z,13.63
2018-05-12T02:29:36.476Z,13.60
2018-05-12T02:30:36.494Z,13.63
2018-05-12T02:31:36.511Z,13.60
2018-05-12T02:32:36.519Z,13.62
2018-05-12T02:33:36.539Z,13.59
2018-05-12T02:34:36.583Z,13.57
2018-05-12T02:35:36.570Z,13.55
2018-05-12T02:36:36.585Z,13.59
2018-05-12T02:37:36.602Z,13.59
2018-05-12T02:38:36.620Z,13.57
2018-05-12T02:39:36.641Z,13.54
2018-05-12T02:40:36.658Z,13.51
2018-05-12T02:41:36.678Z,13.54
2018-05-12T02:42:36.690Z,13.41
2018-05-12T02:43:36.705Z,13.48
2018-05-12T02:44:36.718Z,13.46
2018-05-12T02:45:36.738Z,13.48
2018-05-12T02:47:36.781Z,13.42
2018-05-12T02:49:36.809Z,13.41
2018-05-12T02:50:36.822Z,13.38
2018-05-12T02:52:36.857Z,13.39
2018-05-12T02:53:36.871Z,13.38
2018-05-12T02:55:36.970Z,13.38
2018-05-12T02:56:36.929Z,13.33
2018-05-12T02:57:36.951Z,13.39
2018-05-12T02:58:36.959Z,13.42
2018-05-12T02:59:36.964Z,13.33
2018-05-12T03:00:36.986Z,13.36
2018-05-12T03:01:37.003Z,13.32
2018-05-12T03:02:37.022Z,13.29
2018-05-12T03:03:37.031Z,13.32
2018-05-12T03:04:37.047Z,13.30
2018-05-12T03:05:37.070Z,13.23
2018-05-12T03:06:37.086Z,13.29
2018-05-12T03:07:37.155Z,13.26
2018-05-12T03:08:37.111Z,13.25
2018-05-12T03:09:37.128Z,13.26
2018-05-12T03:10:37.146Z,13.26
2018-05-12T03:11:37.163Z,13.19
2018-05-12T03:12:37.180Z,13.20
2018-05-12T03:13:37.200Z,13.29
2018-05-12T03:14:37.215Z,13.25
2018-05-12T03:15:37.230Z,13.32
2018-05-12T03:16:37.246Z,13.25
2018-05-12T03:17:37.260Z,13.22
2018-05-12T03:18:37.281Z,13.19
2018-05-12T03:19:37.302Z,13.19
2018-05-12T03:20:37.308Z,13.07
2018-05-12T03:21:37.323Z,13.14
2018-05-12T03:22:37.348Z,13.19
2018-05-12T03:23:37.361Z,13.19
2018-05-12T03:24:37.370Z,13.17
2018-05-12T03:25:37.392Z,13.12
2018-05-12T03:26:37.406Z,13.15
2018-05-12T03:27:37.420Z,13.17
2018-05-12T03:28:37.442Z,13.15
2018-05-12T03:29:37.461Z,13.12
2018-05-12T03:30:37.476Z,12.97
2018-05-12T03:31:37.495Z,12.95
2018-05-12T03:32:37.510Z,13.03
2018-05-12T03:33:37.521Z,13.03
2018-05-12T03:34:37.541Z,13.04
2018-05-12T03:35:37.559Z,13.01
2018-05-12T03:36:37.574Z,12.97
2018-05-12T03:37:37.593Z,13.00
2018-05-12T03:38:37.604Z,13.04
2018-05-12T03:39:37.620Z,13.05
2018-05-12T03:40:37.640Z,12.97
2018-05-12T03:41:37.658Z,13.03
2018-05-12T03:42:37.673Z,13.00
2018-05-12T03:43:37.741Z,13.04
2018-05-12T03:44:37.702Z,13.10
2018-05-12T03:45:37.723Z,13.10
2018-05-12T03:46:37.732Z,13.15
2018-05-12T03:47:37.789Z,13.07
2018-05-12T03:48:37.774Z,13.23
2018-05-12T03:49:37.841Z,13.12
2018-05-12T03:50:37.803Z,13.25
2018-05-12T03:51:37.823Z,13.25
2018-05-12T03:52:37.835Z,13.23
2018-05-12T03:53:37.853Z,13.22
2018-05-12T03:54:37.866Z,13.23
2018-05-12T03:55:37.931Z,13.23
2018-05-12T03:56:37.897Z,13.26
2018-05-12T03:57:37.919Z,13.23
2018-05-12T03:58:37.931Z,13.23
2018-05-12T03:59:37.956Z,13.14
2018-05-12T04:00:37.969Z,13.14
2018-05-12T04:01:37.986Z,13.14
2018-05-12T04:02:38.004Z,13.14
2018-05-12T04:03:38.014Z,13.20
2018-05-12T04:04:38.031Z,13.17
2018-05-12T04:05:38.045Z,13.12
2018-05-12T04:06:38.061Z,13.12
2018-05-12T04:07:38.082Z,13.23
2018-05-12T04:08:38.159Z,13.25
2018-05-12T04:09:38.118Z,13.23
2018-05-12T04:10:38.132Z,13.25
2018-05-12T04:11:38.151Z,13.22
2018-05-12T04:12:38.198Z,13.25
2018-05-12T04:13:38.234Z,13.26
2018-05-12T04:14:38.194Z,13.26
2018-05-12T04:15:38.214Z,13.30
2018-05-12T04:16:38.230Z,13.23
2018-05-12T04:17:38.245Z,13.30
2018-05-12T04:18:38.261Z,13.28
2018-05-12T04:19:38.328Z,13.20
2018-05-12T04:20:38.368Z,13.29
2018-05-12T04:21:38.314Z,13.30
2018-05-12T04:22:38.326Z,13.38
2018-05-12T04:23:38.343Z,13.38
2018-05-12T04:24:38.364Z,13.33
2018-05-12T04:25:38.381Z,13.41
2018-05-12T04:26:38.394Z,13.36
2018-05-12T04:27:38.407Z,13.33
2018-05-12T04:28:38.432Z,13.36
2018-05-12T04:29:38.442Z,13.36
2018-05-12T04:30:38.540Z,13.42
2018-05-12T04:31:38.534Z,13.46
2018-05-12T04:32:38.498Z,13.45
2018-05-12T04:33:38.507Z,13.48
2018-05-12T04:34:38.531Z,13.49
2018-05-12T04:35:38.546Z,13.42
2018-05-12T04:36:38.606Z,13.44
2018-05-12T04:37:38.592Z,13.42
2018-05-12T04:38:38.596Z,13.46
2018-05-12T04:39:38.610Z,13.38
2018-05-12T04:40:38.628Z,13.44
2018-05-12T04:41:38.639Z,13.41
2018-05-12T04:42:38.748Z,13.42
2018-05-12T04:43:38.727Z,13.44
2018-05-12T04:44:38.773Z,13.44
2018-05-12T04:45:38.707Z,13.44
2018-05-12T04:46:38.730Z,13.36
2018-05-12T04:47:38.740Z,13.32
2018-05-12T04:48:38.849Z,13.44
2018-05-12T04:49:38.829Z,13.36
2018-05-12T04:50:38.793Z,13.32
2018-05-12T04:51:38.808Z,13.32
2018-05-12T04:52:38.822Z,13.29
2018-05-12T04:53:38.844Z,13.36
2018-05-12T04:54:38.903Z,13.36
2018-05-12T04:55:38.925Z,13.33
2018-05-12T04:56:38.887Z,13.26
2018-05-12T04:57:38.910Z,13.25
2018-05-12T04:58:38.919Z,13.26
2018-05-12T04:59:38.942Z,13.25
2018-05-12T05:00:39.013Z,13.25
2018-05-12T05:01:39.053Z,13.22
2018-05-12T05:02:38.987Z,13.17
2018-05-12T05:03:39.001Z,13.14
2018-05-12T05:04:39.020Z,13.14
2018-05-12T05:05:39.035Z,13.23
2018-05-12T05:06:39.084Z,13.17
2018-05-12T05:07:39.074Z,13.07
2018-05-12T05:08:39.089Z,13.15
2018-05-12T05:09:39.103Z,13.11
2018-05-12T05:10:39.123Z,13.03
2018-05-12T05:11:39.134Z,13.10
2018-05-12T05:12:39.156Z,13.05
2018-05-12T05:13:39.217Z,13.17
2018-05-12T05:14:39.186Z,13.11
2018-05-12T05:15:39.201Z,13.08
2018-05-12T05:16:39.220Z,13.14
2018-05-12T05:17:39.231Z,13.05
2018-05-12T05:18:39.292Z,13.01
2018-05-12T05:19:39.319Z,13.03
2018-05-12T05:20:39.286Z,12.96
2018-05-12T05:21:39.303Z,13.05
2018-05-12T05:22:39.313Z,12.95
2018-05-12T05:23:39.330Z,12.85
2018-05-12T05:24:39.394Z,12.90
2018-05-12T05:25:39.419Z,12.92
2018-05-12T05:26:39.386Z,12.90
2018-05-12T05:27:39.397Z,12.90
2018-05-12T05:28:39.414Z,12.97
2018-05-12T05:29:39.436Z,12.95
2018-05-12T05:30:39.445Z,12.95
2018-05-12T05:31:39.518Z,12.96
2018-05-12T05:32:39.477Z,12.95
2018-05-12T05:33:39.504Z,13.00
2018-05-12T05:34:39.521Z,12.95
2018-05-12T05:35:39.527Z,12.97
2018-05-12T05:36:39.577Z,12.93
2018-05-12T05:37:39.615Z,13.00
2018-05-12T05:38:39.582Z,12.97
2018-05-12T05:39:39.592Z,12.92
2018-05-12T05:40:39.610Z,12.95
2018-05-12T05:41:39.675Z,12.82
2018-05-12T05:42:39.679Z,12.95
2018-05-12T05:43:39.657Z,12.90
2018-05-12T05:44:39.673Z,12.92
2018-05-12T05:45:39.693Z,12.93
2018-05-12T05:46:39.716Z,12.93
2018-05-12T05:47:39.724Z,12.90
2018-05-12T05:48:39.743Z,12.97
2018-05-12T05:49:39.804Z,13.04
2018-05-12T05:50:39.777Z,13.05
2018-05-12T05:51:39.792Z,13.03
2018-05-12T05:52:39.804Z,12.96
2018-05-12T05:53:39.824Z,12.95
2018-05-12T05:54:39.856Z,13.03
2018-05-12T05:55:39.853Z,12.96
2018-05-12T05:56:39.872Z,13.03
2018-05-12T05:57:39.892Z,12.97
2018-05-12T05:58:39.946Z,13.00
2018-05-12T05:59:39.924Z,13.00
2018-05-12T06:00:39.941Z,13.05
2018-05-12T06:01:40.002Z,13.11
2018-05-12T06:02:39.970Z,13.12
2018-05-12T06:03:39.990Z,13.08
2018-05-12T06:04:40.008Z,13.12
2018-05-12T06:05:40.020Z,13.12
2018-05-12T06:06:40.031Z,13.17
2018-05-12T06:07:40.105Z,13.23
2018-05-12T06:08:40.065Z,13.08
2018-05-12T06:09:40.086Z,13.14
2018-05-12T06:10:40.102Z,13.07
2018-05-12T06:11:40.119Z,13.22
2018-05-12T06:12:40.135Z,13.19
2018-05-12T06:13:40.155Z,13.10
2018-05-12T06:14:40.167Z,13.14
2018-05-12T06:15:40.187Z,13.07
2018-05-12T06:16:40.209Z,13.20
2018-05-12T06:17:40.216Z,13.14
2018-05-12T06:18:40.233Z,13.17
2018-05-12T06:19:40.249Z,13.08
2018-05-12T06:21:40.279Z,13.22
2018-05-12T06:22:40.303Z,13.26
2018-05-12T06:23:40.316Z,13.26
2018-05-12T06:24:40.327Z,13.28
2018-05-12T06:25:40.400Z,13.36
2018-05-12T06:26:40.360Z,13.38
2018-05-12T06:27:40.377Z,13.46
2018-05-12T06:28:40.400Z,13.41
2018-05-12T06:29:40.412Z,13.59
2018-05-12T06:30:40.429Z,13.54
2018-05-12T06:31:40.449Z,13.54
2018-05-12T06:32:40.465Z,13.66
2018-05-12T06:33:40.484Z,13.64
2018-05-12T06:34:40.494Z,13.62
2018-05-12T06:35:40.523Z,13.66
2018-05-12T06:36:40.531Z,13.66
2018-05-12T06:37:40.544Z,13.73
2018-05-12T06:38:40.567Z,13.81
2018-05-12T06:39:40.576Z,13.88
2018-05-12T06:40:40.599Z,13.92
2018-05-12T06:41:40.612Z,13.91
2018-05-12T06:42:40.627Z,13.99
2018-05-12T06:43:40.698Z,14.09
2018-05-12T06:44:40.662Z,14.35
2018-05-12T06:45:40.679Z,14.40
2018-05-12T06:46:40.697Z,14.42
2018-05-12T06:47:40.719Z,14.61
2018-05-12T06:48:40.732Z,14.69
2018-05-12T06:49:40.828Z,14.81
2018-05-12T06:50:40.763Z,14.96
2018-05-12T06:51:40.782Z,15.09
2018-05-12T06:52:40.804Z,15.19
2018-05-12T06:53:40.819Z,15.29
2018-05-12T06:54:40.831Z,15.50
2018-05-12T06:55:40.987Z,15.71
2018-05-12T06:56:40.872Z,15.87
2018-05-12T06:57:40.886Z,15.82
2018-05-12T06:58:40.904Z,15.90
2018-05-12T06:59:40.921Z,15.80
2018-05-12T07:00:40.943Z,15.75
2018-05-12T07:01:41.036Z,15.65
2018-05-12T07:02:40.972Z,15.90
2018-05-12T07:03:40.987Z,16.01
2018-05-12T07:04:41.008Z,16.00
2018-05-12T07:05:41.022Z,15.96
2018-05-12T07:06:41.043Z,15.96
2018-05-12T07:07:41.155Z,16.11
2018-05-12T07:08:41.091Z,16.45
2018-05-12T07:09:41.100Z,16.71
2018-05-12T07:10:41.120Z,16.68
2018-05-12T07:11:41.131Z,16.58
2018-05-12T07:12:41.150Z,16.66
2018-05-12T07:13:41.274Z,16.64
2018-05-12T07:14:41.184Z,16.49
2018-05-12T07:15:41.210Z,16.41
2018-05-12T07:16:41.225Z,16.17
2018-05-12T07:17:41.245Z,16.09
2018-05-12T07:18:41.258Z,16.00
2018-05-12T07:19:41.297Z,15.86
2018-05-12T07:20:41.320Z,15.76
2018-05-12T07:21:41.308Z,15.83
2018-05-12T07:22:41.330Z,15.75
2018-05-12T07:23:41.347Z,15.94
2018-05-12T07:24:41.368Z,16.07
2018-05-12T07:25:41.435Z,16.53
2018-05-12T07:26:41.402Z,16.64
2018-05-12T07:27:41.420Z,16.86
2018-05-12T07:28:41.444Z,16.61
2018-05-12T07:29:41.551Z,16.66
2018-05-12T07:30:41.476Z,17.04
2018-05-12T07:31:41.549Z,16.73
2018-05-12T07:32:41.573Z,16.76
2018-05-12T07:33:41.530Z,17.18
2018-05-12T07:34:41.545Z,17.12
2018-05-12T07:35:41.570Z,16.75
2018-05-12T07:36:41.585Z,16.83
2018-05-12T07:37:41.599Z,17.25
2018-05-12T07:38:41.639Z,17.43
2018-05-12T07:39:41.641Z,17.31
2018-05-12T07:40:41.659Z,17.54
2018-05-12T07:41:41.680Z,17.51
2018-05-12T07:42:41.695Z,17.66
2018-05-12T07:43:41.763Z,17.84
2018-05-12T07:44:41.730Z,18.15
2018-05-12T07:45:41.751Z,18.11
2018-05-12T07:46:41.768Z,17.86
2018-05-12T07:47:41.791Z,17.64
2018-05-12T07:48:41.808Z,17.75
2018-05-12T07:49:41.876Z,17.58
2018-05-12T07:50:41.849Z,17.46
2018-05-12T07:51:41.868Z,17.66
2018-05-12T07:52:41.883Z,17.16
2018-05-12T07:53:41.906Z,17.16
2018-05-12T07:54:41.924Z,17.15
2018-05-12T07:55:41.937Z,16.78
2018-05-12T07:56:41.960Z,16.50
2018-05-12T07:57:41.981Z,16.52
2018-05-12T07:58:41.991Z,16.93
2018-05-12T07:59:42.015Z,16.79
2018-05-12T08:00:42.033Z,16.96
2018-05-12T08:01:42.106Z,17.01
2018-05-12T08:02:42.071Z,17.08
2018-05-12T08:03:42.088Z,17.31
2018-05-12T08:04:42.108Z,17.86
2018-05-12T08:05:42.123Z,17.66
2018-05-12T08:06:42.145Z,17.25
2018-05-12T08:07:42.212Z,17.31
2018-05-12T08:08:42.178Z,17.12
2018-05-12T08:09:42.198Z,16.75
2018-05-12T08:10:42.217Z,16.53
2018-05-12T08:11:42.239Z,16.57
2018-05-12T08:12:42.327Z,16.53
2018-05-12T08:13:42.325Z,16.31
2018-05-12T08:14:42.291Z,16.39
2018-05-12T08:15:42.306Z,16.05
2018-05-12T08:16:42.324Z,15.96
2018-05-12T08:17:42.350Z,16.00
2018-05-12T08:18:42.367Z,15.97
2018-05-12T08:19:42.381Z,15.96
2018-05-12T08:20:42.434Z,16.05
2018-05-12T08:21:42.420Z,16.14
2018-05-12T08:22:42.440Z,16.31
2018-05-12T08:23:42.455Z,16.38
2018-05-12T08:24:42.475Z,16.33
2018-05-12T08:25:42.538Z,16.39
2018-05-12T08:26:42.508Z,16.43
2018-05-12T08:27:42.527Z,16.67
2018-05-12T08:28:42.645Z,16.71
2018-05-12T08:29:42.566Z,16.53
2018-05-12T08:30:42.579Z,16.56
2018-05-12T08:31:42.597Z,16.57
2018-05-12T08:32:42.620Z,16.64
2018-05-12T08:33:42.638Z,16.67
2018-05-12T08:34:42.654Z,16.52
2018-05-12T08:35:42.671Z,16.50
2018-05-12T08:36:42.686Z,16.46
2018-05-12T08:37:42.712Z,16.27
2018-05-12T08:38:42.765Z,16.09
2018-05-12T08:39:42.739Z,16.11
2018-05-12T08:40:42.776Z,16.17
2018-05-12T08:41:42.781Z,16.08
2018-05-12T08:42:42.793Z,15.97
2018-05-12T08:43:42.813Z,15.83
2018-05-12T08:44:42.835Z,16.01
2018-05-12T08:45:42.852Z,16.04
2018-05-12T08:46:42.865Z,16.12
2018-05-12T08:47:42.885Z,16.61
2018-05-12T08:48:42.911Z,17.37
2018-05-12T08:49:42.972Z,18.05
2018-05-12T08:50:42.943Z,18.30
2018-05-12T08:51:42.997Z,18.44
2018-05-12T08:52:42.973Z,18.54
2018-05-12T08:53:42.990Z,19.23
2018-05-12T08:54:43.013Z,19.96
2018-05-12T08:55:43.086Z,19.81
2018-05-12T08:56:43.047Z,20.23
2018-05-12T08:57:43.069Z,20.39
2018-05-12T08:58:43.089Z,20.87
2018-05-12T08:59:43.102Z,20.82
2018-05-12T09:00:43.124Z,21.47
2018-05-12T09:01:43.191Z,21.58
2018-05-12T09:02:43.160Z,21.43
2018-05-12T09:03:43.183Z,20.84
2018-05-12T09:04:43.201Z,20.08
2018-05-12T09:05:43.222Z,19.41
2018-05-12T09:06:43.240Z,18.91
2018-05-12T09:08:43.275Z,19.28
2018-05-12T09:09:43.300Z,19.69
2018-05-12T09:10:43.350Z,20.35
2018-05-12T09:11:43.336Z,20.76
2018-05-12T09:12:43.356Z,20.54
2018-05-12T09:13:43.384Z,20.82
2018-05-12T09:14:43.393Z,20.48
2018-05-12T09:15:43.417Z,20.48
2018-05-12T09:16:43.446Z,20.99
2018-05-12T09:17:43.455Z,21.32
2018-05-12T09:18:43.474Z,21.01
2018-05-12T09:19:43.494Z,20.66
2018-05-12T09:20:43.520Z,20.58
2018-05-12T09:21:43.538Z,21.01
2018-05-12T09:22:43.563Z,21.37
2018-05-12T09:23:43.575Z,21.13
2018-05-12T09:24:43.601Z,21.22
2018-05-12T09:25:43.668Z,21.74
2018-05-12T09:26:43.637Z,22.07
2018-05-12T09:27:43.662Z,22.03
2018-05-12T09:28:43.681Z,21.80
2018-05-12T09:29:43.770Z,22.05
2018-05-12T09:30:43.718Z,22.57
2018-05-12T09:31:43.794Z,22.88
2018-05-12T09:32:43.766Z,23.05
2018-05-12T09:33:43.809Z,22.67
2018-05-12T09:34:43.806Z,22.00
2018-05-12T09:35:43.830Z,21.32
2018-05-12T09:36:43.856Z,20.62
2018-05-12T09:37:43.871Z,20.58
2018-05-12T09:38:43.885Z,20.21
2018-05-12T09:39:43.907Z,20.59
2018-05-12T09:40:43.929Z,20.69
2018-05-12T09:41:43.955Z,20.01
2018-05-12T09:42:43.982Z,19.81
2018-05-12T09:43:44.050Z,19.26
2018-05-12T09:44:44.090Z,18.90
2018-05-12T09:45:44.040Z,19.13
2018-05-12T09:46:44.096Z,19.29
2018-05-12T09:47:44.078Z,18.90
2018-05-12T09:48:44.095Z,19.00
2018-05-12T09:49:44.121Z,19.95
2018-05-12T09:50:44.148Z,20.50
2018-05-12T09:51:44.161Z,20.76
2018-05-12T09:52:44.176Z,21.04
2018-05-12T09:53:44.200Z,21.13
2018-05-12T09:54:44.216Z,20.79
2018-05-12T09:55:44.293Z,20.48
2018-05-12T09:56:44.262Z,19.81
2018-05-12T09:57:44.361Z,20.85
2018-05-12T09:58:44.305Z,20.87
2018-05-12T09:59:44.324Z,21.01
2018-05-12T10:00:44.344Z,20.35
2018-05-12T10:01:44.459Z,20.85
2018-05-12T10:02:44.383Z,20.50
2018-05-12T10:03:44.407Z,19.78
2018-05-12T10:04:44.421Z,19.55
2018-05-12T10:05:44.450Z,18.90
2018-05-12T10:06:44.469Z,18.80
2018-05-12T10:07:44.482Z,19.66
2018-05-12T10:08:44.505Z,20.50
2018-05-12T10:09:44.549Z,20.64
2018-05-12T10:10:44.545Z,21.13
2018-05-12T10:11:44.632Z,21.80
2018-05-12T10:12:44.638Z,22.03
2018-05-12T10:13:44.661Z,22.54
2018-05-12T10:14:44.631Z,22.21
2018-05-12T10:15:44.650Z,23.04
2018-05-12T10:16:44.665Z,23.31
2018-05-12T10:17:44.775Z,22.82
2018-05-12T10:18:44.710Z,22.94
2018-05-12T10:19:44.736Z,23.05
2018-05-12T10:20:44.750Z,22.79
2018-05-12T10:21:44.776Z,22.03
2018-05-12T10:22:44.796Z,20.97
2018-05-12T10:23:44.866Z,20.41
2018-05-12T10:24:44.841Z,19.71
2018-05-12T10:25:44.860Z,19.59
2018-05-12T10:26:44.880Z,19.33
2018-05-12T10:27:44.902Z,19.18
2018-05-12T10:28:44.923Z,18.94
2018-05-12T10:29:44.947Z,18.70
2018-05-12T10:30:44.963Z,18.57
2018-05-12T10:31:45.047Z,18.63
2018-05-12T10:32:45.004Z,18.69
2018-05-12T10:33:45.026Z,18.50
2018-05-12T10:34:45.039Z,18.69
2018-05-12T10:35:45.076Z,19.11
2018-05-12T10:36:45.087Z,20.17
2018-05-12T10:37:45.110Z,21.09
2018-05-12T10:38:45.122Z,21.64
2018-05-12T10:39:45.149Z,22.00
2018-05-12T10:40:45.163Z,22.18
2018-05-12T10:41:45.185Z,22.60
2018-05-12T10:42:45.206Z,22.65
2018-05-12T10:43:45.224Z,23.04
2018-05-12T10:44:45.250Z,23.68
2018-05-12T10:45:45.270Z,23.47
2018-05-12T10:46:45.290Z,22.95
2018-05-12T10:47:45.387Z,21.83
2018-05-12T10:48:45.330Z,20.99
2018-05-12T10:49:45.352Z,20.38
2018-05-12T10:50:45.373Z,20.28
2018-05-12T10:51:45.388Z,21.01
2018-05-12T10:52:45.418Z,21.44
2018-05-12T10:53:45.456Z,21.35
2018-05-12T10:54:45.451Z,21.12
2018-05-12T10:55:45.483Z,21.62
2018-05-12T10:56:45.493Z,22.09
2018-05-12T10:57:45.524Z,22.62
2018-05-12T10:58:45.544Z,22.68
2018-05-12T10:59:45.589Z,23.13
2018-05-12T11:00:45.585Z,22.67
2018-05-12T11:01:45.655Z,22.70
2018-05-12T11:02:45.624Z,22.94
2018-05-12T11:03:45.650Z,23.02
2018-05-12T11:04:45.663Z,22.54
2018-05-12T11:05:45.688Z,22.88
2018-05-12T11:06:45.710Z,22.52
2018-05-12T11:07:45.732Z,22.91
2018-05-12T11:08:45.755Z,23.43
2018-05-12T11:09:45.921Z,23.53
2018-05-12T11:10:45.797Z,23.35
2018-05-12T11:11:45.816Z,23.39
2018-05-12T11:12:45.845Z,22.64
2018-05-12T11:13:45.860Z,21.13
2018-05-12T11:14:45.888Z,20.73
2018-05-12T11:15:45.918Z,20.10
2018-05-12T11:16:45.930Z,19.43
2018-05-12T11:17:45.950Z,19.33
2018-05-12T11:18:46.037Z,18.91
2018-05-12T11:19:46.044Z,18.88
2018-05-12T11:20:46.017Z,19.00
2018-05-12T11:21:46.063Z,19.10
2018-05-12T11:22:46.058Z,19.10
2018-05-12T11:23:46.078Z,20.17
2018-05-12T11:24:46.132Z,21.29
2018-05-12T11:25:46.120Z,21.65
2018-05-12T11:26:46.281Z,21.90
2018-05-12T11:27:46.159Z,21.47
2018-05-12T11:28:46.182Z,22.37
2018-05-12T11:29:46.197Z,21.61
2018-05-12T11:30:46.236Z,21.29
2018-05-12T11:31:46.291Z,21.03
2018-05-12T11:32:46.260Z,21.56
2018-05-12T11:33:46.286Z,22.46
2018-05-12T11:34:46.302Z,22.77
2018-05-12T11:35:46.326Z,22.62
2018-05-12T11:36:46.351Z,22.70
2018-05-12T11:37:46.364Z,23.12
2018-05-12T11:38:46.490Z,23.12
2018-05-12T11:39:46.425Z,23.83
2018-05-12T11:40:46.428Z,24.06
2018-05-12T11:41:46.452Z,24.13
2018-05-12T11:42:46.470Z,22.77
2018-05-12T11:43:46.499Z,22.70
2018-05-12T11:44:46.621Z,22.07
2018-05-12T11:45:46.541Z,22.67
2018-05-12T11:46:46.557Z,23.23
2018-05-12T11:47:46.582Z,23.20
2018-05-12T11:48:46.602Z,23.27
2018-05-12T11:49:46.693Z,23.19
2018-05-12T11:50:46.647Z,23.42
2018-05-12T11:51:46.673Z,23.33
2018-05-12T11:52:46.690Z,23.69
2018-05-12T11:53:46.710Z,23.05
2018-05-12T11:54:46.738Z,22.20
2018-05-12T11:55:46.820Z,22.54
2018-05-12T11:56:46.780Z,23.04
2018-05-12T11:57:46.801Z,22.62
2018-05-12T11:58:46.828Z,22.49
2018-05-12T11:59:46.846Z,22.97
2018-05-12T12:00:46.870Z,23.88
2018-05-12T12:01:46.963Z,24.45
2018-05-12T12:03:47.043Z,22.22
2018-05-12T12:04:46.961Z,21.52
2018-05-12T12:05:46.983Z,20.92
2018-05-12T12:06:47.002Z,20.13
2018-05-12T12:07:47.076Z,19.50
2018-05-12T12:08:47.048Z,19.37
2018-05-12T12:09:47.065Z,19.48
2018-05-12T12:10:47.095Z,19.39
2018-05-12T12:11:47.109Z,19.13
2018-05-12T12:12:47.136Z,20.41
2018-05-12T12:13:47.205Z,21.25
2018-05-12T12:14:47.179Z,21.37
2018-05-12T12:15:47.200Z,20.95
2018-05-12T12:16:47.221Z,21.54
2018-05-12T12:17:47.241Z,20.67
2018-05-12T12:18:47.255Z,20.35
2018-05-12T12:19:47.377Z,20.29
2018-05-12T12:20:47.296Z,19.84
2018-05-12T12:21:47.320Z,19.80
2018-05-12T12:22:47.337Z,19.73
2018-05-12T12:23:47.362Z,19.74
2018-05-12T12:24:47.390Z,19.23
2018-05-12T12:25:47.432Z,19.29
2018-05-12T12:26:47.422Z,20.06
2018-05-12T12:27:47.448Z,20.05
2018-05-12T12:28:47.473Z,21.37
2018-05-12T12:29:47.495Z,20.80
2018-05-12T12:30:47.509Z,21.50
2018-05-12T12:31:47.535Z,22.07
2018-05-12T12:32:47.543Z,22.39
2018-05-12T12:33:47.564Z,22.83
2018-05-12T12:34:47.585Z,23.09
2018-05-12T12:35:47.609Z,22.82
2018-05-12T12:36:47.630Z,22.39
2018-05-12T12:37:47.697Z,22.45
2018-05-12T12:38:47.671Z,21.16
2018-05-12T12:39:47.691Z,20.73
2018-05-12T12:40:47.716Z,20.66
2018-05-12T12:41:47.736Z,20.54
2018-05-12T12:42:47.752Z,20.72
2018-05-12T12:43:47.774Z,21.38
2018-05-12T12:44:47.798Z,21.79
2018-05-12T12:45:47.818Z,22.28
2018-05-12T12:46:47.838Z,22.79
2018-05-12T12:47:47.863Z,22.73
2018-05-12T12:48:47.878Z,23.00
2018-05-12T12:49:47.956Z,22.94
2018-05-12T12:50:47.919Z,21.71
2018-05-12T12:51:47.984Z,20.51
2018-05-12T12:52:47.966Z,20.66
2018-05-12T12:53:47.990Z,21.62
2018-05-12T12:54:48.007Z,22.35
2018-05-12T12:55:48.032Z,22.94
2018-05-12T12:56:48.048Z,23.46
2018-05-12T12:57:48.069Z,23.83
2018-05-12T12:58:48.091Z,24.09
2018-05-12T12:59:48.116Z,23.51
2018-05-12T13:00:48.188Z,22.68
2018-05-12T13:01:48.170Z,22.28
2018-05-12T13:02:48.182Z,21.61
2018-05-12T13:03:48.205Z,21.16
2018-05-12T13:04:48.300Z,20.80
2018-05-12T13:05:48.250Z,20.69
2018-05-12T13:06:48.317Z,20.17
2018-05-12T13:07:48.291Z,19.99
2018-05-12T13:08:48.310Z,19.73
2018-05-12T13:09:48.328Z,20.10
2018-05-12T13:10:48.354Z,20.57
2018-05-12T13:11:48.372Z,20.11
2018-05-12T13:12:48.397Z,20.05
2018-05-12T13:13:48.412Z,19.08
2018-05-12T13:14:48.500Z,18.63
2018-05-12T13:15:48.460Z,18.50
2018-05-12T13:16:48.477Z,18.45
2018-05-12T13:17:48.498Z,18.30
2018-05-12T13:18:48.572Z,18.15
2018-05-12T13:19:48.609Z,18.14
2018-05-12T13:20:48.583Z,18.23
2018-05-12T13:21:48.586Z,18.36
2018-05-12T13:22:48.599Z,18.50
2018-05-12T13:23:48.619Z,18.82
2018-05-12T13:24:48.652Z,19.14
2018-05-12T13:25:48.671Z,19.40